»·PEaware :: N973SE KSBP-KOXR

N973SE :: KSBP-KOXR

FLIGHT INFORMATION

Flight Status: Arrived
Operator: Privately registered:
United States
More flights under this callsign
Pilot: Stig E. (4778)
Aircraft: CESSNA 310
(C310)
More flights by this aircraft type
Origin: KSBP San Luis Co Regl
United States
Destination: KOXR Oxnard
United States
More flights between these airports :: More routes between these airports
Route: MISHI FLW GMN V299 FIM
File this flight plan on PilotEdge
Remarks:
Altitude:
(Current/Filed)
13,500ft
Speed:
(Current/Filed)
170kts
Departed: 23-Jan-19 12:25 AM
Arrived: 23-Jan-19 01:21 AM
Distance/Time
Traveled:
94nm/0:56
Distance/Time
To Go:
Arrived

Flight Plot

Page will automatically refresh every two minutes.

Flight plan parsing failed; only flown route is shown


Map Options




Map Legend


Flown Route
Filed Route
Departure Airport
Arrival Airport
Navaid (VOR, NDB)
Fix

Horizontal Profiles

Position Reports

Time Latitude Longitude Heading Altitude Ground
Speed
22-Jan-19 23:28 35.238241 -120.639983 308 215ft 0kts
22-Jan-19 23:29 35.238241 -120.639983 308 215ft 0kts
22-Jan-19 23:30 35.238241 -120.639983 308 215ft 0kts
22-Jan-19 23:31 35.238241 -120.639983 308 215ft 0kts
22-Jan-19 23:32 35.238241 -120.639983 308 215ft 0kts
22-Jan-19 23:33 35.238241 -120.639983 308 215ft 0kts
22-Jan-19 23:34 35.238241 -120.639983 308 215ft 0kts
22-Jan-19 23:34 35.238241 -120.639983 308 215ft 0kts
22-Jan-19 23:36 35.238241 -120.639983 308 215ft 0kts
22-Jan-19 23:37 35.238241 -120.639983 308 215ft 0kts
22-Jan-19 23:38 35.238241 -120.639983 308 215ft 0kts
22-Jan-19 23:38 35.238241 -120.639983 308 215ft 0kts
22-Jan-19 23:40 35.238241 -120.639983 308 215ft 0kts
22-Jan-19 23:41 35.238241 -120.639983 308 215ft 0kts
22-Jan-19 23:41 35.238241 -120.639983 308 215ft 0kts
22-Jan-19 23:42 35.238241 -120.639983 308 215ft 0kts
22-Jan-19 23:44 35.238241 -120.639983 308 215ft 0kts
22-Jan-19 23:44 35.238241 -120.639983 308 215ft 0kts
22-Jan-19 23:45 35.238241 -120.639983 308 215ft 0kts
22-Jan-19 23:46 35.238241 -120.639983 308 215ft 0kts
22-Jan-19 23:47 35.238241 -120.639983 308 215ft 0kts
22-Jan-19 23:48 35.238241 -120.639983 308 215ft 0kts
22-Jan-19 23:49 35.238241 -120.639983 308 215ft 0kts
22-Jan-19 23:50 35.238241 -120.639983 308 215ft 0kts
22-Jan-19 23:51 35.238241 -120.639983 308 215ft 0kts
22-Jan-19 23:52 35.238241 -120.639983 308 215ft 0kts
22-Jan-19 23:53 35.238241 -120.639983 308 215ft 0kts
22-Jan-19 23:54 35.238241 -120.639983 308 215ft 0kts
22-Jan-19 23:55 35.238241 -120.639983 308 215ft 0kts
22-Jan-19 23:56 35.238241 -120.639983 308 215ft 0kts
22-Jan-19 23:57 35.238241 -120.639983 308 215ft 0kts
22-Jan-19 23:58 35.238241 -120.639983 308 215ft 0kts
22-Jan-19 23:59 35.238241 -120.639983 308 215ft 0kts
23-Jan-19 00:00 35.238241 -120.639983 308 215ft 0kts
23-Jan-19 00:01 35.238241 -120.639983 308 215ft 0kts
23-Jan-19 00:02 35.238241 -120.639983 308 215ft 0kts
23-Jan-19 00:03 35.238241 -120.639983 308 215ft 0kts
23-Jan-19 00:04 35.238241 -120.639983 308 215ft 0kts
23-Jan-19 00:05 35.238241 -120.639983 308 215ft 0kts
23-Jan-19 00:06 35.238241 -120.639983 308 215ft 0kts
23-Jan-19 00:07 35.238241 -120.639983 308 215ft 0kts
23-Jan-19 00:08 35.238241 -120.639983 308 215ft 0kts
23-Jan-19 00:09 35.238241 -120.639983 308 215ft 0kts
23-Jan-19 00:10 35.238241 -120.639983 308 215ft 0kts
23-Jan-19 00:11 35.238241 -120.639983 308 215ft 0kts
23-Jan-19 00:13 35.238241 -120.639983 308 215ft 0kts
23-Jan-19 00:13 35.238241 -120.639983 308 215ft 0kts
23-Jan-19 00:14 35.238241 -120.639983 308 215ft 0kts
23-Jan-19 00:15 35.238241 -120.639983 308 215ft 0kts
23-Jan-19 00:17 35.238241 -120.639983 308 215ft 0kts
23-Jan-19 00:17 35.238263 -120.640017 308 215ft 2kts
23-Jan-19 00:18 35.236815 -120.638175 124 215ft 17kts
23-Jan-19 00:19 35.233654 -120.632575 123 215ft 17kts
23-Jan-19 00:20 35.233136 -120.631897 221 215ft 0kts
23-Jan-19 00:21 35.233136 -120.631897 221 215ft 0kts
23-Jan-19 00:23 35.233136 -120.631897 221 215ft 0kts
23-Jan-19 00:23 35.233136 -120.631897 221 215ft 0kts
23-Jan-19 00:24 35.234878 -120.636660 304 216ft 89kts
23-Jan-19 00:25 35.256888 -120.674349 297 1114ft 166kts
23-Jan-19 00:26 35.233237 -120.715468 198 2114ft 164kts
23-Jan-19 00:27 35.201797 -120.682057 101 3125ft 163kts
23-Jan-19 00:28 35.197102 -120.626722 92 4138ft 165kts
23-Jan-19 00:29 35.190777 -120.570814 107 5146ft 169kts
23-Jan-19 00:30 35.166249 -120.521198 120 6153ft 171kts
23-Jan-19 00:31 35.138584 -120.473577 118 7160ft 171kts
23-Jan-19 00:32 35.131698 -120.419026 88 8172ft 162kts
23-Jan-19 00:33 35.128013 -120.364332 87 9173ft 162kts
23-Jan-19 00:34 35.124263 -120.308971 86 10193ft 163kts
23-Jan-19 00:35 35.120453 -120.253068 85 11215ft 166kts
23-Jan-19 00:36 35.116534 -120.195818 84 12239ft 171kts
23-Jan-19 00:37 35.112484 -120.137115 84 13263ft 175kts
23-Jan-19 00:38 35.107951 -120.072653 86 13506ft 205kts
23-Jan-19 00:39 35.102459 -120.001466 87 13503ft 213kts
23-Jan-19 00:40 35.097065 -119.929065 86 13501ft 209kts
23-Jan-19 00:41 35.090754 -119.859832 100 13506ft 209kts
23-Jan-19 00:42 35.072636 -119.793153 99 13503ft 205kts
23-Jan-19 00:43 35.054221 -119.727298 100 13509ft 204kts
23-Jan-19 00:44 35.035458 -119.661088 100 13527ft 208kts
23-Jan-19 00:45 35.016294 -119.594126 100 13538ft 209kts
23-Jan-19 00:46 34.997004 -119.526692 100 13544ft 210kts
23-Jan-19 00:47 34.977715 -119.459325 100 13543ft 210kts
23-Jan-19 00:48 34.960908 -119.400712 101 13546ft 209kts
23-Jan-19 00:49 34.942647 -119.337129 101 13554ft 209kts
23-Jan-19 00:50 34.923365 -119.270138 101 13567ft 209kts
23-Jan-19 00:51 34.903949 -119.202888 101 13568ft 209kts
23-Jan-19 00:52 34.884576 -119.135916 102 13457ft 210kts
23-Jan-19 00:53 34.865052 -119.069105 101 12933ft 206kts
23-Jan-19 00:54 34.845989 -119.003541 101 12415ft 204kts
23-Jan-19 00:55 34.827005 -118.938421 101 11897ft 202kts
23-Jan-19 00:56 34.808309 -118.874549 104 11495ft 196kts
23-Jan-19 00:57 34.754761 -118.861958 179 11488ft 208kts
23-Jan-19 00:58 34.696034 -118.864389 180 11481ft 217kts
23-Jan-19 00:59 34.634692 -118.867314 181 11346ft 224kts
23-Jan-19 01:00 34.572324 -118.870944 181 10842ft 224kts
23-Jan-19 01:01 34.509889 -118.873968 180 10337ft 223kts
23-Jan-19 01:02 34.451189 -118.876966 179 9818ft 203kts
23-Jan-19 01:03 34.394870 -118.879470 179 9136ft 204kts
23-Jan-19 01:04 34.344994 -118.898224 255 8350ft 196kts
23-Jan-19 01:05 34.320102 -118.957697 243 7530ft 200kts
23-Jan-19 01:06 34.292508 -119.015708 243 6733ft 197kts
23-Jan-19 01:07 34.280316 -119.073258 325 5938ft 172kts
23-Jan-19 01:08 34.299994 -119.041480 88 5172ft 168kts
23-Jan-19 01:09 34.296978 -118.984893 89 4377ft 166kts
23-Jan-19 01:10 34.294239 -118.929053 89 3576ft 164kts
23-Jan-19 01:11 34.290910 -118.875944 114 3188ft 152kts
23-Jan-19 01:12 34.257066 -118.890720 237 3258ft 156kts
23-Jan-19 01:13 34.234584 -118.933455 237 3199ft 145kts
23-Jan-19 01:14 34.212734 -118.974079 238 3200ft 142kts
23-Jan-19 01:15 34.199809 -119.017029 270 2986ft 129kts
23-Jan-19 01:16 34.199217 -119.059396 275 2353ft 125kts
23-Jan-19 01:17 34.199673 -119.101244 275 1672ft 124kts
23-Jan-19 01:18 34.200112 -119.142554 275 1001ft 121kts
23-Jan-19 01:19 34.200484 -119.180311 276 390ft 96kts
23-Jan-19 01:20 34.200843 -119.206784 265 39ft 25kts
23-Jan-19 01:21 34.199081 -119.206856 1 39ft 0kts
23-Jan-19 01:22 34.199081 -119.206856 1 39ft 0kts
23-Jan-19 01:23 34.199081 -119.206856 1 39ft 0kts
23-Jan-19 01:24 34.199081 -119.206856 1 39ft 0kts
23-Jan-19 01:25 34.199081 -119.206856 1 39ft 0kts
23-Jan-19 01:26 34.199081 -119.206856 1 39ft 0kts

Navigation Log

Ident Type
Flight plan parsing failed, navigation log unavailable